Ontario International Airport
KONT : now visible

Airfield :











YOU CAN JOIN US ON...

 
LOGIN :

Register | Disclaimer

   EN    FR    IT 

 









Legend :    VFR   Marginal VFR   IFR   Intensive IFR   Very Intensive IFR
Visi :
Ceiling :
>= 8 km
>= 3000ft
5 to 8 km
1000 to 3000 ft
1500m to 5 km
500 to 1000 ft
800 to 1500m
200 to 500 ft
< 800m
< 200 ft
Symbols :   Thunderstorms  Fog  Heavy snow  Heavy precipitations  Wind > 20 kt






- Airport Elevation : 944 ft
- IATA code : ONT


KONT - Ontario International

CURRENT METAR :
  • 281553Z 00000KT 10SM FEW075 FEW200 BKN260 07/01 A3001 RMK AO2 SLP165 T00670011

EXPIRED METARs :
  • 281453Z 03004KT 10SM FEW150 FEW200 OVC250 07/01 A3001 RMK AO2 SLP163 T00670011 55001
  • 281353Z 05004KT 10SM FEW150 BKN250 06/01 A2999 RMK AO2 SLP159 T00610011

TAF KONT
Valid from the 28 at 12:00 until the 29 at 18:00 UTC


281140Z 2812/2918 VRB05KT P6SM BKN250
FM281900 20008KT P6SM SCT050 BKN150
FM282300 27014G22KT P6SM VCSH SCT025 BKN040
FM290500 26008G16KT 4SM RA OVC018
FM291100 25006KT P6SM SHRA SCT025 BKN035
KZLA FIR / North America



MET'MAP, your aeronautical weather chart ! - Copyright ORBIFLY December 2007 - Disclaimer

ORBIFLY MET'MAP TEAM :

Programming & Development : Alexandra Zaïnal
Concept & original design : Baudouin d'Aumeries
Assistance for programming : Marc-Olivier Méhu
Technical & hardware support : Manuel Goepfert

Contact : metmap@orbifly.com




SOURCES & CREDITS :

   NOAA       Earth
Advisory